createdAt,value
2022-11-02T00:01:51.527Z,8.67
2022-11-02T00:04:40.092Z,8.76
2022-11-02T00:07:29.075Z,8.70
2022-11-02T00:10:17.646Z,8.68
2022-11-02T00:13:07.699Z,8.43
2022-11-02T00:15:56.564Z,8.46
2022-11-02T00:18:46.092Z,8.33
2022-11-02T00:21:35.346Z,8.43
2022-11-02T00:24:23.815Z,8.34
2022-11-02T00:27:12.290Z,8.39
2022-11-02T00:30:02.446Z,8.41
2022-11-02T00:32:51.695Z,8.31
2022-11-02T00:35:40.391Z,8.26
2022-11-02T00:38:28.809Z,8.29
2022-11-02T00:41:18.859Z,8.23
2022-11-02T00:44:07.303Z,8.23
2022-11-02T00:46:57.078Z,8.00
2022-11-02T00:49:45.496Z,8.12
2022-11-02T00:52:33.912Z,8.19
2022-11-02T00:55:22.346Z,8.11
2022-11-02T00:58:10.779Z,8.23
2022-11-02T01:00:59.247Z,8.12
2022-11-02T01:03:49.357Z,8.17
2022-11-02T01:06:38.674Z,7.10
2022-11-02T01:09:27.269Z,8.11
2022-11-02T01:12:15.699Z,8.10
2022-11-02T01:15:04.573Z,8.15
2022-11-02T01:17:52.981Z,8.18
2022-11-02T01:20:42.746Z,8.17
2022-11-02T01:23:32.634Z,8.09
2022-11-02T01:26:22.181Z,8.06
2022-11-02T01:29:10.605Z,8.16
2022-11-02T01:31:59.317Z,8.31
2022-11-02T01:34:47.745Z,8.29
2022-11-02T01:37:37.556Z,8.26
2022-11-02T01:40:26.025Z,8.30
2022-11-02T01:43:22.267Z,8.31
2022-11-02T01:46:17.320Z,8.21
2022-11-02T01:49:08.836Z,8.30
2022-11-02T01:52:00.225Z,8.31
2022-11-02T01:54:53.653Z,8.12
2022-11-02T01:57:43.757Z,8.15
2022-11-02T02:00:32.262Z,8.28
2022-11-02T02:03:21.332Z,8.26
2022-11-02T02:06:11.810Z,8.19
2022-11-02T02:09:04.491Z,8.22
2022-11-02T02:11:54.261Z,8.16
2022-11-02T02:14:42.742Z,8.30
2022-11-02T02:17:40.222Z,8.36
2022-11-02T02:20:41.047Z,8.43
2022-11-02T02:23:45.510Z,8.44
2022-11-02T02:26:47.070Z,8.37
2022-11-02T02:29:46.562Z,8.18
2022-11-02T02:32:40.008Z,8.33
2022-11-02T02:35:34.763Z,8.41
2022-11-02T02:38:30.258Z,8.12
2022-11-02T02:41:25.030Z,8.40
2022-11-02T02:44:17.372Z,8.42
2022-11-02T02:47:11.439Z,8.41
2022-11-02T02:50:05.025Z,8.54
2022-11-02T02:52:54.310Z,8.53
2022-11-02T02:55:45.128Z,8.54
2022-11-02T02:58:38.126Z,8.52
2022-11-02T03:01:27.370Z,8.33
2022-11-02T03:04:17.222Z,8.47
2022-11-02T03:07:06.201Z,8.52
2022-11-02T03:10:01.440Z,8.53
2022-11-02T03:12:57.402Z,8.58
2022-11-02T03:15:49.117Z,8.58
2022-11-02T03:18:44.738Z,8.57
2022-11-02T03:21:40.042Z,8.61
2022-11-02T03:24:31.710Z,8.62
2022-11-02T03:27:22.059Z,8.65
2022-11-02T03:30:14.796Z,8.64
2022-11-02T03:33:06.536Z,8.55
2022-11-02T03:35:58.135Z,8.60
2022-11-02T03:38:50.607Z,8.62
2022-11-02T03:41:40.436Z,8.56
2022-11-02T03:44:30.381Z,8.62
2022-11-02T03:47:20.363Z,8.57
2022-11-02T03:50:10.419Z,8.58
2022-11-02T03:53:02.547Z,8.52
2022-11-02T03:55:54.318Z,8.47
2022-11-02T03:58:42.723Z,8.49
2022-11-02T04:01:32.655Z,8.51
2022-11-02T04:04:21.225Z,8.41
2022-11-02T04:07:09.649Z,8.45
2022-11-02T04:09:58.077Z,8.33
2022-11-02T04:13:05.235Z,8.30
2022-11-02T04:15:53.629Z,8.32
2022-11-02T04:19:00.124Z,8.31
2022-11-02T04:22:02.471Z,8.29
2022-11-02T04:25:08.288Z,8.33
2022-11-02T04:28:07.953Z,8.26
2022-11-02T04:30:58.700Z,8.31
2022-11-02T04:33:47.114Z,8.28
2022-11-02T04:36:35.532Z,8.21
2022-11-02T04:39:22.960Z,8.14
2022-11-02T04:42:11.370Z,8.12
2022-11-02T04:45:01.132Z,8.03
2022-11-02T04:47:49.598Z,8.11
2022-11-02T04:50:38.353Z,7.94
2022-11-02T04:53:26.779Z,8.16
2022-11-02T04:56:15.375Z,8.18
2022-11-02T04:59:03.877Z,8.27
2022-11-02T05:01:53.711Z,8.31
2022-11-02T05:04:42.228Z,8.31
2022-11-02T05:07:30.672Z,8.33
2022-11-02T05:10:19.106Z,8.32
2022-11-02T05:13:07.530Z,8.37
2022-11-02T05:15:56.883Z,8.44
2022-11-02T05:18:46.679Z,8.47
2022-11-02T05:21:35.123Z,8.08
2022-11-02T05:24:23.551Z,8.55
2022-11-02T05:27:11.963Z,8.56
2022-11-02T05:30:00.897Z,8.69
2022-11-02T05:32:49.323Z,8.79
2022-11-02T05:35:39.077Z,8.78
2022-11-02T05:38:28.330Z,8.91
2022-11-02T05:41:16.890Z,9.05
2022-11-02T05:44:05.332Z,9.47
2022-11-02T05:46:53.744Z,9.63
2022-11-02T05:49:42.245Z,10.00
2022-11-02T05:52:32.257Z,10.38
2022-11-02T05:55:20.664Z,10.60
2022-11-02T05:58:09.080Z,10.90
2022-11-02T06:00:59.972Z,10.69
2022-11-02T06:03:53.130Z,11.28
2022-11-02T06:06:42.450Z,11.47
2022-11-02T06:09:32.202Z,11.66
2022-11-02T06:12:20.665Z,11.81
2022-11-02T06:15:10.166Z,11.85
2022-11-02T06:17:58.829Z,11.84
2022-11-02T06:20:47.313Z,11.89
2022-11-02T06:23:36.619Z,11.83
2022-11-02T06:26:26.404Z,11.76
2022-11-02T06:29:15.008Z,11.75
2022-11-02T06:32:03.455Z,11.77
2022-11-02T06:34:51.902Z,11.70
2022-11-02T06:37:40.332Z,11.63
2022-11-02T06:40:29.252Z,11.76
2022-11-02T06:43:19.392Z,11.67
2022-11-02T06:46:08.053Z,11.60
2022-11-02T06:48:56.503Z,11.57
2022-11-02T06:51:44.937Z,11.72
2022-11-02T06:54:33.336Z,11.63
2022-11-02T06:57:21.929Z,11.61
2022-11-02T07:00:15.440Z,11.61
2022-11-02T07:03:08.659Z,11.59
2022-11-02T07:05:57.758Z,11.63
2022-11-02T07:08:46.180Z,11.56
2022-11-02T07:11:34.611Z,11.63
2022-11-02T07:14:23.046Z,11.80
2022-11-02T07:17:12.826Z,11.78
2022-11-02T07:20:01.264Z,11.95
2022-11-02T07:22:53.718Z,12.09
2022-11-02T07:25:42.545Z,12.20
2022-11-02T07:28:31.000Z,12.35
2022-11-02T07:31:19.474Z,12.34
2022-11-02T07:34:14.083Z,12.30
2022-11-02T07:37:05.068Z,12.27
2022-11-02T07:39:53.529Z,12.23
2022-11-02T07:42:46.460Z,12.22
2022-11-02T07:45:34.961Z,12.21
2022-11-02T07:48:23.415Z,12.26
2022-11-02T07:51:13.269Z,12.28
2022-11-02T07:54:02.656Z,12.29
2022-11-02T07:56:51.087Z,12.34
2022-11-02T07:59:39.534Z,12.40
2022-11-02T08:02:28.050Z,12.38
2022-11-02T08:05:16.758Z,12.57
2022-11-02T08:08:08.426Z,12.65
2022-11-02T08:10:57.182Z,12.63
2022-11-02T08:13:45.634Z,12.71
2022-11-02T08:16:34.346Z,12.70
2022-11-02T08:19:22.778Z,12.78
2022-11-02T08:22:11.267Z,12.79
2022-11-02T08:25:01.614Z,12.84
2022-11-02T08:27:50.113Z,12.88
2022-11-02T08:30:39.510Z,12.90
2022-11-02T08:33:27.966Z,12.93
2022-11-02T08:36:16.456Z,12.96
2022-11-02T08:39:05.225Z,13.00
2022-11-02T08:41:55.028Z,13.22
2022-11-02T08:44:43.472Z,13.29
2022-11-02T08:47:31.922Z,13.33
2022-11-02T08:50:20.406Z,13.43
2022-11-02T08:53:08.956Z,13.60
2022-11-02T08:55:58.207Z,12.98
2022-11-02T08:58:48.085Z,13.76
2022-11-02T09:01:36.659Z,13.67
2022-11-02T09:04:25.937Z,13.90
2022-11-02T09:07:14.395Z,13.94
2022-11-02T09:10:03.035Z,13.88
2022-11-02T09:12:51.498Z,13.86
2022-11-02T09:15:41.464Z,13.82
2022-11-02T09:18:30.143Z,13.78
2022-11-02T09:21:18.653Z,13.85
2022-11-02T09:24:07.561Z,13.84
2022-11-02T09:26:56.038Z,13.97
2022-11-02T09:29:44.451Z,13.96
2022-11-02T09:32:34.507Z,14.01
2022-11-02T09:35:23.285Z,14.07
2022-11-02T09:38:12.265Z,14.01
2022-11-02T09:41:11.958Z,14.19
2022-11-02T09:44:04.781Z,14.34
2022-11-02T09:47:28.110Z,14.58
2022-11-02T09:50:04.156Z,14.67
2022-11-02T09:52:56.446Z,14.91
2022-11-02T09:55:51.793Z,14.95
2022-11-02T09:58:41.597Z,15.11
2022-11-02T10:01:41.082Z,15.28
2022-11-02T10:04:47.815Z,15.60
2022-11-02T10:08:04.820Z,15.91
2022-11-02T10:11:08.047Z,16.02
2022-11-02T10:14:01.645Z,15.95
2022-11-02T10:16:53.424Z,15.78
2022-11-02T10:19:47.109Z,15.85
2022-11-02T10:22:39.155Z,15.78
2022-11-02T10:25:28.939Z,15.75
2022-11-02T10:28:20.363Z,15.87
2022-11-02T10:31:21.612Z,15.99
2022-11-02T10:34:19.121Z,16.01
2022-11-02T10:37:22.664Z,15.82
2022-11-02T10:40:18.183Z,16.36
2022-11-02T10:43:16.765Z,16.67
2022-11-02T10:46:19.568Z,16.83
2022-11-02T10:49:14.916Z,16.84
2022-11-02T10:52:03.349Z,16.69
2022-11-02T10:54:52.294Z,16.35
2022-11-02T10:57:41.063Z,15.89
2022-11-02T11:00:33.783Z,15.80
2022-11-02T11:03:22.318Z,16.01
2022-11-02T11:06:11.222Z,15.96
2022-11-02T11:09:04.770Z,16.43
2022-11-02T11:11:54.881Z,16.57
2022-11-02T11:21:05.452Z,17.07
2022-11-02T11:23:58.689Z,17.11
2022-11-02T11:26:47.206Z,17.13
2022-11-02T11:29:36.856Z,16.78
2022-11-02T11:32:30.105Z,16.93
2022-11-02T11:35:21.021Z,16.94
2022-11-02T11:38:15.047Z,16.79
2022-11-02T11:41:04.147Z,17.06
2022-11-02T11:43:53.022Z,17.11
2022-11-02T11:46:43.234Z,17.21
2022-11-02T11:52:44.520Z,17.09
2022-11-02T11:55:32.986Z,17.10
2022-11-02T11:58:22.889Z,17.10
2022-11-02T12:01:18.224Z,17.08
2022-11-02T12:04:06.805Z,17.02
2022-11-02T12:07:18.104Z,17.29
2022-11-02T12:10:14.740Z,17.32
2022-11-02T12:13:11.371Z,17.29
2022-11-02T12:16:10.530Z,17.22
2022-11-02T12:19:17.024Z,17.24
2022-11-02T12:22:13.681Z,17.23
2022-11-02T12:25:16.282Z,17.33
2022-11-02T12:28:14.466Z,17.30
2022-11-02T12:31:11.764Z,17.34
2022-11-02T12:34:16.286Z,17.08
2022-11-02T12:37:38.666Z,16.97
2022-11-02T12:43:31.031Z,16.82
2022-11-02T12:46:38.036Z,16.61
2022-11-02T12:49:39.925Z,16.44
2022-11-02T12:52:38.772Z,16.51
2022-11-02T12:55:37.300Z,16.60
2022-11-02T12:58:30.596Z,16.68
2022-11-02T13:01:24.463Z,16.80
2022-11-02T13:04:17.502Z,16.87
2022-11-02T13:07:12.584Z,16.97
2022-11-02T13:10:04.619Z,16.94
2022-11-02T13:12:58.367Z,16.92
2022-11-02T13:15:48.008Z,16.65
2022-11-02T13:18:41.067Z,16.77
2022-11-02T13:21:38.572Z,16.88
2022-11-02T13:24:34.873Z,16.95
2022-11-02T13:27:36.420Z,16.95
2022-11-02T13:30:28.426Z,16.88
2022-11-02T13:33:19.556Z,16.89
2022-11-02T13:36:08.382Z,16.81
2022-11-02T13:39:01.598Z,16.75
2022-11-02T13:42:25.571Z,16.79
2022-11-02T13:45:37.046Z,16.81
2022-11-02T13:48:39.820Z,16.74
2022-11-02T13:51:34.013Z,16.68
2022-11-02T13:54:25.980Z,16.66
2022-11-02T13:57:28.880Z,16.63
2022-11-02T14:00:32.099Z,16.51
2022-11-02T14:03:23.429Z,16.46
2022-11-02T14:06:14.322Z,16.52
2022-11-02T14:09:04.525Z,16.60
2022-11-02T14:11:53.097Z,16.56
2022-11-02T14:14:41.575Z,16.55
2022-11-02T14:17:31.368Z,16.46
2022-11-02T14:20:33.589Z,16.41
2022-11-02T14:23:40.055Z,16.40
2022-11-02T14:26:33.581Z,16.35
2022-11-02T14:29:39.895Z,16.28
2022-11-02T14:32:40.909Z,16.21
2022-11-02T14:35:38.617Z,16.14
2022-11-02T14:38:53.906Z,16.11
2022-11-02T14:41:59.600Z,16.10
2022-11-02T14:45:01.279Z,16.01
2022-11-02T14:47:57.348Z,15.99
2022-11-02T14:50:59.087Z,15.88
2022-11-02T14:53:47.968Z,15.86
2022-11-02T14:56:53.712Z,15.82
2022-11-02T14:59:46.725Z,15.76
2022-11-02T15:02:40.300Z,15.72
2022-11-02T15:05:36.387Z,15.71
2022-11-02T15:08:26.736Z,15.66
2022-11-02T15:11:49.706Z,15.62
2022-11-02T15:14:55.984Z,15.53
2022-11-02T15:18:01.395Z,15.46
2022-11-02T15:21:27.659Z,15.38
2022-11-02T15:24:18.827Z,15.30
2022-11-02T15:27:07.888Z,15.26
2022-11-02T15:29:56.671Z,15.14
2022-11-02T15:32:47.274Z,15.06
2022-11-02T15:35:37.314Z,14.87
2022-11-02T15:38:33.806Z,14.87
2022-11-02T15:41:31.477Z,14.77
2022-11-02T15:44:33.770Z,14.65
2022-11-02T15:47:27.996Z,14.49
2022-11-02T15:50:28.496Z,14.41
2022-11-02T15:53:30.487Z,14.26
2022-11-02T15:56:36.286Z,14.10
2022-11-02T15:59:46.987Z,13.94
2022-11-02T16:02:38.038Z,13.84
2022-11-02T16:05:28.190Z,13.48
2022-11-02T16:08:23.767Z,13.53
2022-11-02T16:11:18.270Z,13.38
2022-11-02T16:14:17.870Z,13.26
2022-11-02T16:17:06.377Z,13.13
2022-11-02T16:20:10.125Z,13.12
2022-11-02T16:23:00.878Z,13.04
2022-11-02T16:25:49.739Z,12.88
2022-11-02T16:28:39.975Z,12.68
2022-11-02T16:31:31.898Z,12.60
2022-11-02T16:34:22.235Z,12.49
2022-11-02T16:37:13.805Z,12.41
2022-11-02T16:40:02.428Z,12.33
2022-11-02T16:42:53.641Z,12.10
2022-11-02T16:45:44.087Z,12.15
2022-11-02T16:48:34.000Z,11.75
2022-11-02T16:51:24.050Z,11.90
2022-11-02T16:54:29.274Z,11.80
2022-11-02T16:57:20.886Z,11.80
2022-11-02T17:00:18.891Z,11.84
2022-11-02T17:03:10.425Z,11.74
2022-11-02T17:06:00.440Z,11.67
2022-11-02T17:08:52.264Z,11.58
2022-11-02T17:11:42.128Z,11.44
2022-11-02T17:14:30.679Z,11.33
2022-11-02T17:17:32.926Z,11.26
2022-11-02T17:20:24.411Z,11.18
2022-11-02T17:23:31.918Z,10.99
2022-11-02T17:26:29.478Z,10.97
2022-11-02T17:29:32.173Z,10.96
2022-11-02T17:32:21.257Z,10.95
2022-11-02T17:35:16.028Z,10.93
2022-11-02T17:38:06.095Z,10.82
2022-11-02T17:40:55.100Z,10.73
2022-11-02T17:43:42.583Z,10.59
2022-11-02T17:46:31.061Z,10.64
2022-11-02T17:49:19.523Z,10.62
2022-11-02T17:52:08.282Z,10.57
2022-11-02T17:54:59.130Z,10.47
2022-11-02T17:57:47.619Z,10.51
2022-11-02T18:00:37.701Z,10.46
2022-11-02T18:03:31.161Z,10.37
2022-11-02T18:06:20.070Z,10.38
2022-11-02T18:09:18.966Z,10.40
2022-11-02T18:12:10.363Z,10.26
2022-11-02T18:14:58.787Z,10.21
2022-11-02T18:17:47.551Z,10.15
2022-11-02T18:20:41.363Z,10.20
2022-11-02T18:23:31.324Z,10.14
2022-11-02T18:26:19.818Z,10.17
2022-11-02T18:29:09.585Z,9.97
2022-11-02T18:31:58.066Z,10.10
2022-11-02T18:34:46.482Z,10.14
2022-11-02T18:37:35.102Z,10.11
2022-11-02T18:40:24.625Z,10.11
2022-11-02T18:43:13.103Z,10.11
2022-11-02T18:46:03.044Z,10.24
2022-11-02T18:48:51.503Z,10.32
2022-11-02T18:51:42.877Z,10.30
2022-11-02T18:54:31.384Z,10.30
2022-11-02T18:57:24.157Z,10.41
2022-11-02T19:00:16.246Z,10.09
2022-11-02T19:03:06.227Z,10.12
2022-11-02T19:06:15.218Z,10.09
2022-11-02T19:09:19.278Z,9.74
2022-11-02T19:12:09.750Z,10.24
2022-11-02T19:14:58.733Z,9.98
2022-11-02T19:17:47.191Z,9.98
2022-11-02T19:20:37.007Z,9.94
2022-11-02T19:23:25.534Z,9.99
2022-11-02T19:26:14.657Z,9.83
2022-11-02T19:29:06.257Z,9.89
2022-11-02T19:31:55.285Z,9.76
2022-11-02T19:34:43.832Z,9.79
2022-11-02T19:37:34.806Z,9.78
2022-11-02T19:40:23.482Z,9.80
2022-11-02T19:43:12.096Z,9.68
2022-11-02T19:46:01.816Z,9.71
2022-11-02T19:48:50.778Z,9.69
2022-11-02T19:51:39.397Z,9.65
2022-11-02T19:54:29.240Z,9.72
2022-11-02T19:57:17.750Z,9.74
2022-11-02T20:00:07.118Z,9.70
2022-11-02T20:02:55.649Z,9.71
2022-11-02T20:05:47.296Z,9.67
2022-11-02T20:08:35.929Z,9.45
2022-11-02T20:11:27.149Z,9.45
2022-11-02T20:14:17.131Z,9.67
2022-11-02T20:17:29.583Z,9.60
2022-11-02T20:20:14.104Z,9.57
2022-11-02T20:23:02.615Z,9.47
2022-11-02T20:25:51.191Z,9.50
2022-11-02T20:28:44.040Z,9.49
2022-11-02T20:31:33.866Z,9.44
2022-11-02T20:34:22.331Z,9.57
2022-11-02T20:37:10.829Z,9.55
2022-11-02T20:39:59.366Z,9.66
2022-11-02T20:42:49.445Z,9.59
2022-11-02T20:45:39.320Z,9.57
2022-11-02T20:48:27.851Z,9.62
2022-11-02T20:51:16.761Z,9.62
2022-11-02T20:54:05.562Z,9.59
2022-11-02T20:56:54.010Z,9.61
2022-11-02T20:59:42.500Z,9.63
2022-11-02T21:02:32.460Z,9.61
2022-11-02T21:05:20.977Z,9.63
2022-11-02T21:08:09.750Z,9.63
2022-11-02T21:10:58.888Z,9.57
2022-11-02T21:13:52.512Z,9.53
2022-11-02T21:16:40.984Z,9.36
2022-11-02T21:19:30.778Z,9.47
2022-11-02T21:22:19.275Z,9.42
2022-11-02T21:25:08.387Z,9.53
2022-11-02T21:27:56.853Z,9.48
2022-11-02T21:30:45.316Z,9.46
2022-11-02T21:33:34.428Z,9.47
2022-11-02T21:36:24.324Z,9.46
2022-11-02T21:39:12.793Z,9.27
2022-11-02T21:42:01.294Z,9.25
2022-11-02T21:44:49.743Z,9.17
2022-11-02T21:47:38.244Z,9.21
2022-11-02T21:50:26.742Z,9.04
2022-11-02T21:53:16.585Z,8.48
2022-11-02T21:56:07.356Z,8.98
2022-11-02T21:58:56.376Z,8.99
2022-11-02T22:01:49.126Z,9.14
2022-11-02T22:04:37.902Z,9.19
2022-11-02T22:07:26.363Z,9.19
2022-11-02T22:10:16.288Z,9.01
2022-11-02T22:13:22.306Z,9.08
2022-11-02T22:16:12.736Z,9.17
2022-11-02T22:19:02.570Z,9.05
2022-11-02T22:21:51.127Z,9.08
2022-11-02T22:24:44.408Z,9.07
2022-11-02T22:27:34.632Z,9.17
2022-11-02T22:30:24.450Z,9.16
2022-11-02T22:33:12.927Z,9.15
2022-11-02T22:36:01.387Z,9.05
2022-11-02T22:38:53.401Z,8.96
2022-11-02T22:41:43.031Z,9.00
2022-11-02T22:44:32.847Z,9.05
2022-11-02T22:47:21.306Z,9.02
2022-11-02T22:50:10.127Z,9.06
2022-11-02T22:52:58.556Z,8.94
2022-11-02T22:55:47.013Z,9.03
2022-11-02T22:58:36.751Z,8.84
2022-11-02T23:01:28.238Z,8.77
2022-11-02T23:04:16.821Z,8.48
2022-11-02T23:07:05.267Z,7.59
2022-11-02T23:09:53.684Z,8.44
2022-11-02T23:12:41.090Z,8.42
2022-11-02T23:15:31.281Z,8.53
2022-11-02T23:18:41.650Z,8.50
2022-11-02T23:21:29.094Z,8.58
2022-11-02T23:24:35.515Z,8.30
2022-11-02T23:27:24.288Z,8.59
2022-11-02T23:30:30.598Z,8.83
2022-11-02T23:33:20.997Z,8.43
2022-11-02T23:36:12.626Z,8.63
2022-11-02T23:39:18.834Z,8.64
2022-11-02T23:42:07.262Z,8.54
2022-11-02T23:44:55.701Z,8.50
2022-11-02T23:48:00.710Z,8.50
2022-11-02T23:51:08.205Z,8.56
2022-11-02T23:54:14.406Z,8.43
2022-11-02T23:57:02.918Z,8.39
2022-11-02T23:59:51.457Z,8.39
